createdAt,value
2023-01-20T00:03:07.607Z,100532.59
2023-01-20T00:08:11.403Z,100539.19
2023-01-20T00:13:14.096Z,100553.53
2023-01-20T00:18:17.211Z,100548.84
2023-01-20T00:23:21.001Z,100550.41
2023-01-20T00:28:23.480Z,100568.25
2023-01-20T00:33:25.957Z,100569.00
2023-01-20T00:38:29.774Z,100573.16
2023-01-20T00:43:32.265Z,100581.38
2023-01-20T00:48:34.897Z,100586.16
2023-01-20T00:53:38.932Z,100585.56
2023-01-20T00:58:43.493Z,100590.47
2023-01-20T01:03:46.038Z,100597.97
2023-01-20T01:08:50.032Z,100612.31
2023-01-20T01:13:52.519Z,100616.13
2023-01-20T01:18:55.591Z,100623.75
2023-01-20T01:23:59.409Z,100625.44
2023-01-20T01:29:01.867Z,100626.97
2023-01-20T01:34:04.359Z,100626.69
2023-01-20T01:39:08.317Z,100619.53
2023-01-20T01:44:12.387Z,100623.53
2023-01-20T01:49:18.939Z,100624.16
2023-01-20T01:54:26.620Z,100624.03
2023-01-20T01:59:29.267Z,100635.25
2023-01-20T02:04:33.769Z,100636.06
2023-01-20T02:09:38.697Z,100639.41
2023-01-20T02:14:45.007Z,100649.31
2023-01-20T02:20:11.409Z,100660.41
2023-01-20T02:25:49.747Z,100665.59
2023-01-20T02:31:09.517Z,100660.13
2023-01-20T02:36:19.787Z,100670.31
2023-01-20T02:41:27.283Z,100672.78
2023-01-20T02:46:35.211Z,100675.22
2023-01-20T02:51:45.045Z,100675.22
2023-01-20T02:56:49.261Z,100678.97
2023-01-20T03:01:55.938Z,100680.66
2023-01-20T03:07:02.083Z,100685.03
2023-01-20T03:12:12.817Z,100688.56
2023-01-20T03:17:15.453Z,100687.31
2023-01-20T03:22:19.479Z,100692.00
2023-01-20T03:27:21.987Z,100707.03
2023-01-20T03:32:26.828Z,100706.44
2023-01-20T03:37:30.875Z,100706.44
2023-01-20T03:42:42.924Z,100726.50
2023-01-20T03:47:54.065Z,100721.63
2023-01-20T03:53:02.383Z,100727.97
2023-01-20T03:58:09.421Z,100743.16
2023-01-20T04:03:17.286Z,100739.19
2023-01-20T04:08:25.481Z,100742.81
2023-01-20T04:13:27.937Z,100753.16
2023-01-20T04:18:30.761Z,100761.69
2023-01-20T04:23:40.532Z,100766.25
2023-01-20T04:28:43.024Z,100768.81
2023-01-20T04:33:45.499Z,100776.59
2023-01-20T04:38:49.294Z,100783.59
2023-01-20T04:43:51.758Z,100795.13
2023-01-20T04:48:54.231Z,100799.41
2023-01-20T04:53:59.051Z,100803.94
2023-01-20T04:59:01.556Z,100815.19
2023-01-20T05:04:04.111Z,100826.63
2023-01-20T05:09:10.656Z,100831.63
2023-01-20T05:14:13.855Z,100837.59
2023-01-20T05:19:16.791Z,100848.84
2023-01-20T05:24:20.830Z,100851.13
2023-01-20T05:29:23.585Z,100867.84
2023-01-20T05:34:26.082Z,100862.06
2023-01-20T05:39:29.884Z,100876.81
2023-01-20T05:44:32.396Z,100880.47
2023-01-20T05:49:35.134Z,100892.63
2023-01-20T05:54:38.971Z,100904.22
2023-01-20T05:59:42.351Z,100919.41
2023-01-20T06:04:44.905Z,100919.69
2023-01-20T06:09:48.847Z,100928.78
2023-01-20T06:14:51.654Z,100933.34
2023-01-20T06:19:54.136Z,100937.31
2023-01-20T06:24:57.920Z,100951.16
2023-01-20T06:30:00.534Z,100963.19
2023-01-20T06:35:03.048Z,100966.97
2023-01-20T06:40:07.921Z,100977.47
2023-01-20T06:45:11.507Z,100983.56
2023-01-20T06:50:13.975Z,100988.72
2023-01-20T06:55:18.035Z,101005.47
2023-01-20T07:00:21.599Z,101016.75
2023-01-20T07:05:24.079Z,101025.72
2023-01-20T07:10:27.876Z,101035.34
2023-01-20T07:15:30.331Z,101058.94
2023-01-20T07:20:32.828Z,101063.31
2023-01-20T07:25:37.931Z,101070.34
2023-01-20T07:30:40.414Z,101078.38
2023-01-20T07:35:42.907Z,101092.41
2023-01-20T07:40:46.730Z,101094.06
2023-01-20T07:45:49.217Z,101102.78
2023-01-20T07:50:57.731Z,101115.25
2023-01-20T07:56:02.963Z,101126.06
2023-01-20T08:01:09.471Z,101130.94
2023-01-20T08:06:13.629Z,101132.13
2023-01-20T08:11:19.187Z,101146.00
2023-01-20T08:16:22.434Z,101139.28
2023-01-20T08:21:27.780Z,101147.19
2023-01-20T08:26:32.333Z,101156.03
2023-01-20T08:31:35.717Z,101165.78
2023-01-20T08:36:41.275Z,101178.41
2023-01-20T08:41:46.857Z,101186.47
2023-01-20T08:46:52.496Z,101196.97
2023-01-20T08:51:56.186Z,101196.22
2023-01-20T08:56:59.975Z,101211.03
2023-01-20T09:02:02.549Z,101212.81
2023-01-20T09:07:06.238Z,101214.97
2023-01-20T09:12:10.350Z,101220.44
2023-01-20T09:17:14.576Z,101234.75
2023-01-20T09:22:17.065Z,101241.19
2023-01-20T09:27:21.055Z,101244.97
2023-01-20T09:32:23.537Z,101257.59
2023-01-20T09:37:43.600Z,101256.38
2023-01-20T09:43:19.947Z,101271.44
2023-01-20T09:48:51.850Z,101269.94
2023-01-20T09:54:03.902Z,101274.31
2023-01-20T09:59:13.214Z,101275.13
2023-01-20T10:04:21.721Z,101271.72
2023-01-20T10:09:33.790Z,101270.38
2023-01-20T10:14:41.555Z,101281.03
2023-01-20T10:19:51.778Z,101284.34
2023-01-20T10:25:01.003Z,101282.84
2023-01-20T10:30:09.820Z,101284.69
2023-01-20T10:35:18.583Z,101282.38
2023-01-20T10:40:33.542Z,101289.84
2023-01-20T10:45:52.078Z,101297.31
2023-01-20T10:51:04.177Z,101300.97
2023-01-20T10:56:38.978Z,101306.59
2023-01-20T11:06:59.596Z,101321.06
2023-01-20T11:12:04.514Z,101333.09
2023-01-20T11:17:09.344Z,101340.84
2023-01-20T11:22:14.733Z,101341.16
2023-01-20T11:27:19.418Z,101348.75
2023-01-20T11:32:26.261Z,101354.38
2023-01-20T11:37:37.884Z,101367.78
2023-01-20T11:42:44.951Z,101364.56
2023-01-20T11:47:47.528Z,101382.28
2023-01-20T11:52:51.384Z,101382.28
2023-01-20T11:57:56.550Z,101388.03
2023-01-20T12:03:01.498Z,101400.97
2023-01-20T12:08:11.161Z,101404.09
2023-01-20T12:13:20.303Z,101414.31
2023-01-20T12:18:35.402Z,101423.50
2023-01-20T12:23:48.657Z,101433.00
2023-01-20T12:28:58.271Z,101430.09
2023-01-20T12:34:04.360Z,101434.38
2023-01-20T12:39:29.325Z,101443.53
2023-01-20T12:44:40.800Z,101442.28
2023-01-20T12:50:02.421Z,101448.22
2023-01-20T12:55:21.368Z,101460.34
2023-01-20T13:00:37.498Z,101470.88
2023-01-20T13:05:57.247Z,101480.53
2023-01-20T13:11:12.507Z,101489.06
2023-01-20T13:16:21.965Z,101486.81
2023-01-20T13:21:24.441Z,101497.22
2023-01-20T13:26:29.709Z,101499.25
2023-01-20T13:31:44.114Z,101510.53
2023-01-20T13:37:33.020Z,101522.91
2023-01-20T13:42:51.279Z,101522.75
2023-01-20T13:47:58.464Z,101532.69
2023-01-20T13:53:27.779Z,101539.25
2023-01-20T13:58:33.503Z,101542.94
2023-01-20T14:03:38.010Z,101553.91
2023-01-20T14:08:42.614Z,101554.09
2023-01-20T14:13:54.269Z,101554.09
2023-01-20T14:18:58.861Z,101573.66
2023-01-20T14:24:01.326Z,101587.69
2023-01-20T14:29:05.127Z,101594.44
2023-01-20T14:34:24.397Z,101606.31
2023-01-20T14:39:29.091Z,101602.38
2023-01-20T14:44:33.578Z,101617.63
2023-01-20T14:49:39.390Z,101621.00
2023-01-20T14:54:44.897Z,101628.00
2023-01-20T14:59:49.409Z,101631.53
2023-01-20T15:04:51.889Z,101639.78
2023-01-20T15:09:57.571Z,101636.75
2023-01-20T15:15:13.041Z,101651.09
2023-01-20T15:20:28.695Z,101670.19
2023-01-20T15:25:31.595Z,101680.72
2023-01-20T15:30:35.684Z,101689.88
2023-01-20T15:35:38.190Z,101702.81
2023-01-20T15:40:40.724Z,101722.19
2023-01-20T15:45:44.964Z,101733.78
2023-01-20T15:50:48.055Z,101743.41
2023-01-20T15:55:52.350Z,101760.78
2023-01-20T16:00:57.563Z,101766.28
2023-01-20T16:06:00.113Z,101767.06
2023-01-20T16:11:02.606Z,101781.84
2023-01-20T16:16:13.181Z,101794.97
2023-01-20T16:21:18.234Z,101791.47
2023-01-20T16:26:23.087Z,101799.84
2023-01-20T16:31:28.693Z,101810.25
2023-01-20T16:36:31.420Z,101815.88
2023-01-20T16:41:34.238Z,101818.78
2023-01-20T16:46:39.126Z,101824.22
2023-01-20T16:51:42.005Z,101828.16
2023-01-20T16:56:44.477Z,101840.97
2023-01-20T17:01:49.596Z,101836.38
2023-01-20T17:06:53.554Z,101844.75
2023-01-20T17:11:56.056Z,101850.97
2023-01-20T17:17:00.141Z,101861.94
2023-01-20T17:22:02.876Z,101863.78
2023-01-20T17:27:05.467Z,101882.09
2023-01-20T17:32:09.299Z,101892.00
2023-01-20T17:37:11.783Z,101896.41
2023-01-20T17:42:16.120Z,101907.88
2023-01-20T17:47:21.385Z,101912.13
2023-01-20T17:52:23.877Z,101910.63
2023-01-20T17:57:27.207Z,101925.44
2023-01-20T18:02:31.216Z,101933.38
2023-01-20T18:07:33.783Z,101939.06
2023-01-20T18:12:36.267Z,101948.69
2023-01-20T18:17:43.245Z,101955.13
2023-01-20T18:22:49.110Z,101967.19
2023-01-20T18:27:51.575Z,101972.03
2023-01-20T18:32:57.425Z,101979.63
2023-01-20T18:38:01.785Z,101981.31
2023-01-20T18:43:04.278Z,101984.06
2023-01-20T18:48:09.800Z,102004.81
2023-01-20T18:53:12.315Z,102012.75
2023-01-20T18:58:16.451Z,102014.44
2023-01-20T19:03:20.379Z,102018.91
2023-01-20T19:08:22.893Z,102030.91
2023-01-20T19:13:25.358Z,102038.53
2023-01-20T19:18:29.193Z,102038.38
2023-01-20T19:23:32.287Z,102047.06
2023-01-20T19:28:35.783Z,102057.91
2023-01-20T19:33:40.124Z,102060.72
2023-01-20T19:38:43.025Z,102079.13
2023-01-20T19:43:46.131Z,102083.81
2023-01-20T19:48:49.930Z,102094.78
2023-01-20T19:53:55.609Z,102098.09
2023-01-20T19:59:00.473Z,102095.19
2023-01-20T20:04:07.725Z,102100.19
2023-01-20T20:09:12.796Z,102104.47
2023-01-20T20:14:17.355Z,102112.03
2023-01-20T20:19:21.220Z,102109.91
2023-01-20T20:24:23.743Z,102115.47
2023-01-20T20:29:26.285Z,102122.75
2023-01-20T20:34:30.415Z,102126.25
2023-01-20T20:39:32.904Z,102137.31
2023-01-20T20:44:35.414Z,102139.31
2023-01-20T20:49:39.345Z,102151.72
2023-01-20T20:54:41.893Z,102152.78
2023-01-20T20:59:58.225Z,102164.44
2023-01-20T21:05:03.018Z,102172.56
2023-01-20T21:10:06.499Z,102177.19
2023-01-20T21:15:10.643Z,102187.38
2023-01-20T21:20:14.863Z,102192.56
2023-01-20T21:25:17.758Z,102189.97
2023-01-20T21:30:20.756Z,102190.88
2023-01-20T21:35:24.659Z,102195.50
2023-01-20T21:40:27.261Z,102204.75
2023-01-20T21:45:29.741Z,102216.97
2023-01-20T21:50:59.732Z,102224.19
2023-01-20T21:56:02.335Z,102230.13
2023-01-20T22:01:04.990Z,102239.59
2023-01-20T22:06:09.159Z,102247.38
2023-01-20T22:11:11.706Z,102254.03
2023-01-20T22:16:14.233Z,102262.19
2023-01-20T22:21:18.835Z,102273.19
2023-01-20T22:26:21.474Z,102285.19
2023-01-20T22:31:24.885Z,102280.97
2023-01-20T22:36:28.900Z,102287.41
2023-01-20T22:41:31.720Z,102289.59
2023-01-20T22:46:34.377Z,102289.59
2023-01-20T22:51:38.280Z,102293.09
2023-01-20T22:56:42.014Z,102295.88
2023-01-20T23:01:44.508Z,102294.44
2023-01-20T23:06:48.349Z,102302.78
2023-01-20T23:11:51.344Z,102310.97
2023-01-20T23:16:53.915Z,102313.56
2023-01-20T23:21:57.740Z,102318.38
2023-01-20T23:27:00.259Z,102328.59
2023-01-20T23:32:02.881Z,102334.00
2023-01-20T23:37:06.726Z,102333.06
2023-01-20T23:42:09.202Z,102344.88
2023-01-20T23:47:11.681Z,102352.28
2023-01-20T23:52:15.634Z,102347.81
2023-01-20T23:57:18.173Z,102343.75
